createdAt,value
2018-12-11T00:00:52.755Z,2.60
2018-12-11T00:05:53.921Z,2.60
2018-12-11T00:10:55.106Z,2.60
2018-12-11T00:15:56.322Z,2.60
2018-12-11T00:20:57.498Z,2.50
2018-12-11T00:25:58.662Z,2.60
2018-12-11T00:30:59.839Z,2.70
2018-12-11T00:36:01.030Z,2.70
2018-12-11T00:41:02.251Z,2.80
2018-12-11T00:46:03.463Z,2.80
2018-12-11T00:51:04.778Z,2.70
2018-12-11T00:56:05.975Z,2.70
2018-12-11T01:01:07.169Z,2.70
2018-12-11T01:06:08.394Z,2.70
2018-12-11T01:11:09.586Z,2.70
2018-12-11T01:16:10.771Z,2.80
2018-12-11T01:21:11.969Z,2.80
2018-12-11T01:26:13.163Z,2.90
2018-12-11T01:31:14.458Z,2.80
2018-12-11T01:36:15.636Z,2.80
2018-12-11T01:41:16.818Z,2.80
2018-12-11T01:46:18.003Z,2.80
2018-12-11T01:51:19.301Z,2.80
2018-12-11T01:56:20.634Z,2.80
2018-12-11T02:01:21.831Z,2.80
2018-12-11T02:06:23.117Z,2.80
2018-12-11T02:11:24.290Z,2.90
2018-12-11T02:16:25.750Z,2.90
2018-12-11T02:21:27.034Z,2.90
2018-12-11T02:26:28.215Z,2.90
2018-12-11T02:31:29.395Z,2.90
2018-12-11T02:36:30.697Z,2.90
2018-12-11T02:41:31.872Z,2.90
2018-12-11T02:46:33.042Z,2.90
2018-12-11T02:51:34.277Z,2.90
2018-12-11T02:56:35.439Z,2.90
2018-12-11T03:01:36.601Z,2.90
2018-12-11T03:06:37.765Z,2.90
2018-12-11T03:11:38.934Z,3.00
2018-12-11T03:16:40.107Z,2.90
2018-12-11T03:21:41.283Z,3.00
2018-12-11T03:26:42.453Z,3.00
2018-12-11T03:31:43.735Z,2.90
2018-12-11T03:36:44.903Z,3.00
2018-12-11T03:41:46.112Z,3.00
2018-12-11T03:46:47.287Z,3.00
2018-12-11T03:51:48.484Z,3.00
2018-12-11T03:56:49.666Z,3.10
2018-12-11T04:01:50.845Z,3.10
2018-12-11T04:06:52.026Z,3.10
2018-12-11T04:11:53.926Z,3.00
2018-12-11T04:16:55.113Z,3.00
2018-12-11T04:21:56.301Z,3.00
2018-12-11T04:26:57.487Z,3.00
2018-12-11T04:31:58.657Z,2.90
2018-12-11T04:36:59.827Z,3.00
2018-12-11T04:42:01.026Z,3.10
2018-12-11T04:47:02.390Z,3.10
2018-12-11T04:52:03.574Z,3.10
2018-12-11T04:57:04.749Z,3.00
2018-12-11T05:02:05.908Z,3.00
2018-12-11T05:07:07.138Z,3.00
2018-12-11T05:12:08.304Z,3.00
2018-12-11T05:17:09.470Z,2.90
2018-12-11T05:22:10.653Z,2.90
2018-12-11T05:27:11.862Z,2.80
2018-12-11T05:32:13.112Z,2.80
2018-12-11T05:37:14.430Z,2.80
2018-12-11T05:42:15.609Z,2.80
2018-12-11T05:47:16.778Z,2.70
2018-12-11T05:52:17.946Z,2.70
2018-12-11T05:57:19.105Z,2.70
2018-12-11T06:02:20.322Z,2.70
2018-12-11T06:07:21.490Z,2.70
2018-12-11T06:12:22.725Z,2.70
2018-12-11T06:17:23.890Z,2.80
2018-12-11T06:22:25.054Z,2.70
2018-12-11T06:27:26.247Z,2.70
2018-12-11T06:32:27.456Z,2.70
2018-12-11T06:37:28.646Z,2.60
2018-12-11T06:42:29.828Z,2.60
2018-12-11T06:47:31.034Z,2.70
2018-12-11T06:52:32.233Z,2.70
2018-12-11T06:57:33.406Z,2.70
2018-12-11T07:02:34.594Z,2.70
2018-12-11T07:07:35.762Z,2.70
2018-12-11T07:12:36.938Z,2.80
2018-12-11T07:17:38.107Z,2.80
2018-12-11T07:22:39.273Z,2.70
2018-12-11T07:27:40.459Z,2.70
2018-12-11T07:32:41.647Z,2.70
2018-12-11T07:37:42.806Z,2.70
2018-12-11T07:42:44.223Z,2.70
2018-12-11T07:47:45.539Z,2.70
2018-12-11T07:52:46.778Z,2.70
2018-12-11T07:57:47.960Z,2.70
2018-12-11T08:02:49.181Z,2.80
2018-12-11T08:07:50.352Z,2.70
2018-12-11T08:12:51.527Z,2.70
2018-12-11T08:17:52.727Z,2.70
2018-12-11T08:22:53.950Z,2.80
2018-12-11T08:27:55.132Z,2.70
2018-12-11T08:32:56.331Z,2.70
2018-12-11T08:37:57.655Z,2.80
2018-12-11T08:42:58.851Z,2.80
2018-12-11T08:48:00.067Z,2.90
2018-12-11T08:53:01.239Z,3.00
2018-12-11T08:58:02.434Z,3.00
2018-12-11T09:03:03.672Z,3.10
2018-12-11T09:08:04.866Z,2.90
2018-12-11T09:13:06.072Z,2.80
2018-12-11T09:18:07.297Z,2.80
2018-12-11T09:23:08.489Z,2.80
2018-12-11T09:28:11.248Z,2.80
2018-12-11T09:33:12.743Z,2.90
2018-12-11T09:38:14.145Z,2.90
2018-12-11T09:43:15.349Z,2.90
2018-12-11T09:48:16.558Z,3.20
2018-12-11T09:53:17.750Z,3.30
2018-12-11T09:58:18.926Z,3.40
2018-12-11T10:03:20.184Z,3.30
2018-12-11T10:08:21.397Z,3.10
2018-12-11T10:13:22.572Z,3.10
2018-12-11T10:18:23.786Z,3.00
2018-12-11T10:23:31.734Z,3.00
2018-12-11T10:28:28.642Z,3.10
2018-12-11T10:33:29.846Z,3.20
2018-12-11T10:38:31.108Z,3.30
2018-12-11T10:43:32.335Z,3.40
2018-12-11T10:48:33.536Z,3.60
2018-12-11T10:53:34.729Z,3.30
2018-12-11T10:58:36.125Z,4.40
2018-12-11T11:03:37.315Z,3.40
2018-12-11T11:08:38.480Z,3.30
2018-12-11T11:13:39.783Z,3.40
2018-12-11T11:18:40.958Z,3.40
2018-12-11T11:23:42.126Z,3.50
2018-12-11T11:28:43.312Z,3.60
2018-12-11T11:33:44.494Z,3.70
2018-12-11T11:38:45.670Z,4.00
2018-12-11T11:43:46.865Z,4.00
2018-12-11T11:48:48.163Z,3.90
2018-12-11T11:53:49.402Z,3.70
2018-12-11T11:58:50.593Z,3.60
2018-12-11T12:03:51.774Z,3.60
2018-12-11T12:08:59.202Z,3.80
2018-12-11T12:13:56.225Z,3.30
2018-12-11T12:18:57.411Z,3.20
2018-12-11T12:23:58.611Z,3.10
2018-12-11T12:28:59.832Z,3.10
2018-12-11T12:34:01.143Z,3.20
2018-12-11T12:39:04.237Z,3.30
2018-12-11T12:44:05.422Z,3.50
2018-12-11T12:49:06.608Z,3.70
2018-12-11T12:54:07.794Z,3.90
2018-12-11T12:59:08.998Z,4.00
2018-12-11T13:04:10.191Z,3.90
2018-12-11T13:09:11.516Z,4.10
2018-12-11T13:14:12.709Z,4.30
2018-12-11T13:19:13.909Z,4.40
2018-12-11T13:24:15.088Z,4.40
2018-12-11T13:29:16.283Z,4.30
2018-12-11T13:34:17.466Z,4.10
2018-12-11T13:39:18.641Z,4.00
2018-12-11T13:44:19.842Z,3.90
2018-12-11T13:49:21.055Z,3.80
2018-12-11T13:54:22.302Z,3.70
2018-12-11T13:59:23.495Z,3.60
2018-12-11T14:04:24.963Z,3.50
2018-12-11T14:09:32.185Z,3.40
2018-12-11T14:14:33.395Z,3.20
2018-12-11T14:19:34.735Z,3.10
2018-12-11T14:24:35.938Z,2.90
2018-12-11T14:29:37.265Z,2.50
2018-12-11T14:34:38.494Z,2.30
2018-12-11T14:39:39.806Z,2.70
2018-12-11T14:44:41.010Z,2.30
2018-12-11T14:49:42.205Z,2.30
2018-12-11T14:54:43.425Z,2.40
2018-12-11T14:59:44.614Z,2.50
2018-12-11T15:04:45.804Z,2.40
2018-12-11T15:09:47.487Z,2.30
2018-12-11T15:14:48.734Z,2.30
2018-12-11T15:19:50.069Z,2.30
2018-12-11T15:24:51.245Z,2.30
2018-12-11T15:29:52.454Z,2.30
2018-12-11T15:34:53.652Z,2.20
2018-12-11T15:39:54.835Z,2.20
2018-12-11T15:44:56.017Z,2.20
2018-12-11T15:49:57.197Z,2.20
2018-12-11T15:54:58.401Z,2.10
2018-12-11T15:59:59.708Z,2.10
2018-12-11T16:05:00.881Z,2.10
2018-12-11T16:10:03.595Z,2.20
2018-12-11T16:15:05.021Z,2.40
2018-12-11T16:20:06.308Z,2.50
2018-12-11T16:25:07.641Z,2.70
2018-12-11T16:30:08.963Z,2.80
2018-12-11T16:35:11.600Z,3.00
2018-12-11T16:40:12.939Z,3.00
2018-12-11T16:45:14.118Z,2.90
2018-12-11T16:50:15.310Z,2.90
2018-12-11T16:55:16.499Z,2.90
2018-12-11T17:00:17.707Z,2.80
2018-12-11T17:05:19.038Z,2.80
2018-12-11T17:10:20.247Z,2.80
2018-12-11T17:15:21.907Z,2.80
2018-12-11T17:20:23.108Z,2.70
2018-12-11T17:25:24.319Z,2.60
2018-12-11T17:30:25.515Z,2.60
2018-12-11T17:35:26.768Z,2.70
2018-12-11T17:40:28.023Z,2.70
2018-12-11T17:45:29.254Z,2.80
2018-12-11T17:50:30.434Z,2.70
2018-12-11T17:55:31.630Z,2.60
2018-12-11T18:00:32.842Z,2.60
2018-12-11T18:05:34.029Z,2.70
2018-12-11T18:10:36.038Z,2.70
2018-12-11T18:15:37.216Z,2.60
2018-12-11T18:20:38.400Z,2.60
2018-12-11T18:25:39.595Z,2.60
2018-12-11T18:30:40.806Z,2.70
2018-12-11T18:35:42.128Z,2.80
2018-12-11T18:40:43.426Z,2.80
2018-12-11T18:45:44.754Z,2.80
2018-12-11T18:50:45.947Z,2.70
2018-12-11T18:55:47.180Z,2.60
2018-12-11T19:00:48.384Z,2.50
2018-12-11T19:05:49.644Z,2.40
2018-12-11T19:10:50.841Z,2.20
2018-12-11T19:15:52.585Z,2.20
2018-12-11T19:20:54.040Z,2.10
2018-12-11T19:25:55.238Z,2.20
2018-12-11T19:30:56.431Z,2.20
2018-12-11T19:35:57.651Z,2.30
2018-12-11T19:40:58.839Z,2.30
2018-12-11T19:46:00.037Z,2.40
2018-12-11T19:51:01.215Z,2.30
2018-12-11T19:56:02.467Z,2.30
2018-12-11T20:01:03.724Z,2.40
2018-12-11T20:06:04.949Z,2.40
2018-12-11T20:11:06.195Z,2.50
2018-12-11T20:16:07.381Z,2.50
2018-12-11T20:21:08.752Z,2.50
2018-12-11T20:26:10.058Z,2.40
2018-12-11T20:31:11.284Z,2.40
2018-12-11T20:36:12.486Z,2.30
2018-12-11T20:41:13.683Z,2.20
2018-12-11T20:46:14.868Z,2.10
2018-12-11T20:51:16.097Z,2.00
2018-12-11T20:56:17.363Z,1.90
2018-12-11T21:01:18.755Z,1.90
2018-12-11T21:06:20.844Z,1.80
2018-12-11T21:11:22.018Z,1.70
2018-12-11T21:16:23.220Z,1.70
2018-12-11T21:21:24.759Z,1.60
2018-12-11T21:26:26.065Z,1.50
2018-12-11T21:31:27.295Z,1.40
2018-12-11T21:36:28.564Z,1.40
2018-12-11T21:41:30.727Z,1.30
2018-12-11T21:46:31.911Z,1.30
2018-12-11T21:51:33.141Z,1.30
2018-12-11T21:56:34.393Z,5.10
2018-12-11T22:01:35.604Z,1.40
2018-12-11T22:06:36.794Z,1.40
2018-12-11T22:11:37.966Z,1.40
2018-12-11T22:16:39.134Z,1.40
2018-12-11T22:21:40.338Z,1.40
2018-12-11T22:26:41.505Z,1.40
2018-12-11T22:31:42.691Z,1.50
2018-12-11T22:36:43.874Z,1.50
2018-12-11T22:41:45.069Z,5.10
2018-12-11T22:46:46.244Z,1.50
2018-12-11T22:51:47.768Z,1.50
2018-12-11T22:56:48.937Z,1.50
2018-12-11T23:01:50.141Z,1.60
2018-12-11T23:06:51.337Z,1.60
2018-12-11T23:11:52.517Z,1.60
2018-12-11T23:16:53.693Z,1.60
2018-12-11T23:21:54.868Z,1.60
2018-12-11T23:26:56.034Z,1.60
2018-12-11T23:31:57.258Z,3.30
2018-12-11T23:36:58.435Z,1.60
2018-12-11T23:41:59.610Z,1.60
2018-12-11T23:47:00.783Z,1.60
2018-12-11T23:52:02.002Z,1.70
2018-12-11T23:57:03.195Z,1.70
